createdAt,value
2019-04-07T00:01:51.859Z,73.18
2019-04-07T00:06:54.462Z,72.35
2019-04-07T00:11:56.587Z,72.07
2019-04-07T00:16:58.605Z,71.77
2019-04-07T00:22:00.869Z,71.55
2019-04-07T00:27:03.543Z,71.52
2019-04-07T00:32:06.363Z,71.92
2019-04-07T00:37:08.407Z,72.16
2019-04-07T00:42:10.502Z,72.51
2019-04-07T00:47:13.042Z,72.53
2019-04-07T00:52:16.187Z,73.08
2019-04-07T00:57:18.303Z,72.96
2019-04-07T01:02:21.254Z,73.03
2019-04-07T01:07:23.423Z,73.02
2019-04-07T01:12:25.680Z,73.62
2019-04-07T01:17:27.929Z,74.05
2019-04-07T01:22:30.030Z,74.42
2019-04-07T01:27:32.074Z,73.62
2019-04-07T01:32:34.617Z,73.59
2019-04-07T01:37:36.839Z,73.90
2019-04-07T01:43:04.286Z,73.99
2019-04-07T01:48:14.889Z,72.46
2019-04-07T01:53:44.670Z,72.10
2019-04-07T01:58:56.290Z,72.26
2019-04-07T02:04:16.088Z,72.23
2019-04-07T02:09:24.824Z,72.33
2019-04-07T02:14:45.587Z,73.17
2019-04-07T02:20:16.774Z,73.28
2019-04-07T02:25:27.223Z,73.92
2019-04-07T02:30:48.070Z,73.65
2019-04-07T02:36:21.341Z,73.71
2019-04-07T02:41:48.667Z,73.73
2019-04-07T02:47:09.857Z,73.17
2019-04-07T02:52:37.530Z,73.34
2019-04-07T02:57:54.764Z,73.74
2019-04-07T03:03:24.852Z,73.47
2019-04-07T03:08:40.388Z,73.86
2019-04-07T03:14:14.316Z,73.87
2019-04-07T03:19:25.578Z,74.56
2019-04-07T03:24:48.480Z,74.49
2019-04-07T03:30:09.473Z,74.28
2019-04-07T03:35:19.779Z,73.25
2019-04-07T03:40:30.963Z,72.86
2019-04-07T03:45:38.912Z,73.21
2019-04-07T03:50:54.783Z,72.75
2019-04-07T03:56:04.362Z,72.67
2019-04-07T04:01:33.160Z,72.19
2019-04-07T04:06:54.726Z,72.31
2019-04-07T04:12:12.599Z,72.44
2019-04-07T04:17:14.698Z,72.07
2019-04-07T04:22:16.804Z,72.20
2019-04-07T04:27:18.883Z,72.31
2019-04-07T04:32:21.969Z,72.71
2019-04-07T04:37:37.627Z,73.06
2019-04-07T04:42:29.053Z,73.00
2019-04-07T04:47:31.531Z,73.11
2019-04-07T04:52:33.576Z,73.24
2019-04-07T04:57:35.575Z,73.57
2019-04-07T05:02:38.253Z,74.22
2019-04-07T05:07:49.895Z,74.26
2019-04-07T05:12:44.601Z,74.45
2019-04-07T05:17:47.131Z,74.02
2019-04-07T05:22:49.325Z,73.78
2019-04-07T05:27:51.406Z,73.61
2019-04-07T05:32:53.520Z,73.28
2019-04-07T05:38:02.668Z,72.60
2019-04-07T05:42:59.901Z,71.66
2019-04-07T05:48:02.044Z,71.56
2019-04-07T05:53:04.240Z,71.76
2019-04-07T05:58:08.353Z,71.52
2019-04-07T06:03:11.197Z,71.17
2019-04-07T06:08:26.864Z,71.04
2019-04-07T06:13:17.651Z,70.15
2019-04-07T06:18:19.760Z,69.11
2019-04-07T06:23:23.309Z,69.14
2019-04-07T06:28:26.644Z,68.42
2019-04-07T06:33:29.848Z,68.15
2019-04-07T06:38:34.938Z,67.36
2019-04-07T06:43:38.366Z,67.31
2019-04-07T06:49:00.410Z,66.75
2019-04-07T06:54:24.536Z,65.98
2019-04-07T06:59:49.063Z,65.25
2019-04-07T07:05:08.543Z,64.73
2019-04-07T07:10:42.963Z,64.44
2019-04-07T07:16:17.433Z,63.25
2019-04-07T07:21:39.623Z,63.16
2019-04-07T07:26:41.878Z,62.34
2019-04-07T07:31:43.922Z,61.20
2019-04-07T07:36:46.680Z,60.87
2019-04-07T07:41:51.849Z,61.36
2019-04-07T07:46:53.940Z,60.77
2019-04-07T07:51:56.067Z,59.90
2019-04-07T07:56:58.137Z,59.22
2019-04-07T08:02:01.388Z,59.04
2019-04-07T08:07:03.418Z,58.93
2019-04-07T08:12:06.173Z,56.71
2019-04-07T08:17:08.546Z,56.89
2019-04-07T08:22:11.591Z,57.51
2019-04-07T08:27:13.965Z,56.67
2019-04-07T08:32:16.539Z,56.45
2019-04-07T08:37:19.070Z,56.09
2019-04-07T08:42:21.178Z,55.41
2019-04-07T08:47:23.488Z,55.75
2019-04-07T08:52:26.007Z,56.03
2019-04-07T08:57:30.529Z,56.43
2019-04-07T09:02:32.287Z,56.41
2019-04-07T09:07:35.020Z,55.96
2019-04-07T09:12:37.130Z,54.98
2019-04-07T09:17:47.446Z,53.56
2019-04-07T09:22:57.013Z,53.56
2019-04-07T09:28:21.186Z,53.75
2019-04-07T09:33:33.700Z,53.69
2019-04-07T09:38:57.014Z,51.87
2019-04-07T09:44:19.905Z,51.09
2019-04-07T09:49:30.002Z,51.75
2019-04-07T09:54:54.420Z,49.77
2019-04-07T10:00:23.215Z,50.18
2019-04-07T10:05:43.828Z,50.59
2019-04-07T10:11:04.276Z,46.89
2019-04-07T10:16:25.934Z,46.13
2019-04-07T10:21:50.931Z,44.19
2019-04-07T10:27:04.137Z,45.62
2019-04-07T10:32:26.858Z,45.75
2019-04-07T10:37:51.315Z,44.97
2019-04-07T10:43:00.734Z,44.25
2019-04-07T10:48:34.703Z,42.43
2019-04-07T10:53:56.216Z,43.04
2019-04-07T10:59:24.068Z,41.61
2019-04-07T11:04:48.436Z,40.85
2019-04-07T11:10:09.687Z,41.66
2019-04-07T11:15:30.580Z,41.60
2019-04-07T11:20:47.258Z,41.35
2019-04-07T11:26:18.324Z,39.81
2019-04-07T11:31:38.546Z,40.59
2019-04-07T11:36:59.488Z,41.06
2019-04-07T11:42:20.348Z,41.56
2019-04-07T11:47:41.683Z,39.79
2019-04-07T11:52:52.864Z,38.85
2019-04-07T11:58:17.723Z,39.36
2019-04-07T12:03:52.602Z,38.54
2019-04-07T12:09:20.606Z,39.45
2019-04-07T12:14:43.028Z,40.28
2019-04-07T12:20:00.147Z,39.15
2019-04-07T12:25:40.293Z,40.73
2019-04-07T12:31:20.020Z,37.92
2019-04-07T12:36:40.905Z,39.15
2019-04-07T12:42:05.192Z,39.33
2019-04-07T12:47:25.682Z,37.35
2019-04-07T12:52:36.715Z,36.16
2019-04-07T12:58:02.063Z,37.18
2019-04-07T13:03:39.285Z,36.23
2019-04-07T13:08:51.928Z,36.32
2019-04-07T13:14:23.256Z,37.57
2019-04-07T13:19:46.726Z,36.75
2019-04-07T13:25:07.794Z,37.53
2019-04-07T13:30:28.754Z,34.68
2019-04-07T13:35:48.970Z,35.89
2019-04-07T13:41:18.612Z,37.69
2019-04-07T13:46:36.189Z,36.73
2019-04-07T13:57:30.715Z,34.53
2019-04-07T14:02:58.926Z,33.99
2019-04-07T14:08:19.929Z,33.37
2019-04-07T14:13:33.786Z,33.33
2019-04-07T14:18:54.359Z,31.79
2019-04-07T14:24:34.275Z,32.45
2019-04-07T14:29:58.479Z,34.06
2019-04-07T14:35:19.481Z,32.12
2019-04-07T14:40:33.461Z,32.55
2019-04-07T14:45:51.495Z,32.02
2019-04-07T14:51:29.466Z,32.66
2019-04-07T14:57:00.991Z,32.63
2019-04-07T15:02:04.159Z,34.20
2019-04-07T15:07:34.700Z,35.84
2019-04-07T15:12:44.283Z,35.91
2019-04-07T15:17:46.553Z,34.48
2019-04-07T15:22:49.475Z,35.14
2019-04-07T15:27:52.741Z,35.20
2019-04-07T15:32:58.603Z,35.05
2019-04-07T15:37:59.621Z,34.49
2019-04-07T15:43:04.736Z,36.65
2019-04-07T15:48:05.612Z,35.98
2019-04-07T15:53:07.650Z,33.98
2019-04-07T15:58:10.567Z,32.94
2019-04-07T16:03:15.256Z,34.01
2019-04-07T16:08:18.066Z,34.44
2019-04-07T16:13:20.358Z,33.19
2019-04-07T16:18:23.179Z,33.49
2019-04-07T16:23:26.193Z,35.30
2019-04-07T16:28:28.472Z,34.67
2019-04-07T16:33:33.980Z,35.58
2019-04-07T16:38:35.323Z,36.06
2019-04-07T16:43:37.973Z,36.63
2019-04-07T16:48:40.380Z,36.05
2019-04-07T16:53:43.326Z,36.55
2019-04-07T16:58:46.393Z,37.54
2019-04-07T17:03:48.815Z,37.41
2019-04-07T17:08:52.227Z,37.24
2019-04-07T17:13:55.826Z,37.94
2019-04-07T17:18:58.757Z,37.67
2019-04-07T17:24:01.343Z,38.08
2019-04-07T17:29:04.377Z,38.16
2019-04-07T17:34:09.757Z,38.33
2019-04-07T17:39:36.925Z,38.82
2019-04-07T17:45:10.284Z,39.00
2019-04-07T17:50:31.680Z,38.84
2019-04-07T17:55:52.753Z,38.91
2019-04-07T18:01:09.637Z,38.57
2019-04-07T18:06:19.684Z,39.53
2019-04-07T18:11:40.198Z,38.70
2019-04-07T18:17:08.609Z,38.94
2019-04-07T18:22:23.374Z,39.22
2019-04-07T18:27:48.678Z,39.96
2019-04-07T18:33:22.786Z,40.20
2019-04-07T18:38:46.851Z,40.43
2019-04-07T18:44:08.402Z,40.86
2019-04-07T18:49:37.642Z,40.76
2019-04-07T18:55:11.558Z,41.65
2019-04-07T19:00:43.442Z,40.96
2019-04-07T19:06:23.693Z,41.53
2019-04-07T19:11:41.610Z,42.32
2019-04-07T19:16:57.364Z,42.76
2019-04-07T19:22:08.922Z,42.78
2019-04-07T19:27:40.572Z,43.17
2019-04-07T19:33:05.905Z,43.12
2019-04-07T19:38:30.663Z,42.48
2019-04-07T19:43:45.802Z,42.69
2019-04-07T19:49:07.868Z,43.46
2019-04-07T19:54:29.744Z,43.65
2019-04-07T19:59:54.967Z,44.15
2019-04-07T20:05:19.818Z,45.21
2019-04-07T20:10:33.745Z,44.22
2019-04-07T20:15:45.136Z,44.49
2019-04-07T20:21:15.891Z,44.00
2019-04-07T20:26:36.989Z,43.66
2019-04-07T20:31:53.712Z,44.30
2019-04-07T20:37:12.883Z,44.68
2019-04-07T20:42:27.000Z,45.42
2019-04-07T20:47:40.986Z,45.67
2019-04-07T20:52:53.465Z,46.05
2019-04-07T20:58:22.043Z,46.56
2019-04-07T21:03:38.535Z,47.35
2019-04-07T21:08:47.538Z,47.18
2019-04-07T21:14:07.825Z,47.43
2019-04-07T21:19:29.482Z,48.14
2019-04-07T21:24:49.698Z,49.91
2019-04-07T21:30:12.927Z,50.09
2019-04-07T21:35:36.905Z,49.88
2019-04-07T21:41:08.205Z,49.97
2019-04-07T21:46:22.413Z,49.62
2019-04-07T21:51:46.624Z,49.72
2019-04-07T21:57:17.264Z,49.80
2019-04-07T22:02:40.615Z,50.11
2019-04-07T22:08:03.689Z,50.95
2019-04-07T22:13:06.596Z,51.18
2019-04-07T22:18:08.994Z,52.14
2019-04-07T22:23:12.563Z,51.78
2019-04-07T22:28:14.989Z,50.48
2019-04-07T22:33:17.930Z,51.11
2019-04-07T22:38:23.090Z,51.61
2019-04-07T22:43:24.942Z,52.31
2019-04-07T22:48:28.187Z,53.33
2019-04-07T22:53:31.503Z,53.83
2019-04-07T22:58:33.769Z,54.35
2019-04-07T23:03:35.884Z,54.86
2019-04-07T23:08:37.900Z,55.28
2019-04-07T23:13:39.979Z,56.38
2019-04-07T23:18:42.409Z,56.35
2019-04-07T23:23:44.638Z,56.24
2019-04-07T23:28:47.222Z,56.41
2019-04-07T23:33:50.188Z,58.06
2019-04-07T23:38:52.279Z,58.29
2019-04-07T23:43:54.286Z,59.61
2019-04-07T23:48:56.303Z,60.80
2019-04-07T23:54:09.372Z,60.79
2019-04-07T23:59:11.938Z,62.37
